Pagrindinis puslapis
METAR-TAF:

METAR-TAF

Oro uostai :

Sonora Municipal Airport

Sonora, Teksasas, Jungtinės Amerikos Valstijos

platuma: 30-35-08N, ilguma: 100-38-54W, Aukštis: 652 m

Dabartinis oras

Ataskaita buvo paskelbta 32 minutes, ne 11:15 UTC
Ramus vėjas
Temperatūra 17°C
Drėgmė 94%
Slėgis 1023 hPa
Matomumas: 16.1 km
Giedras dangus

METAR: KSOA 291115Z AUTO 00000KT 10SM CLR 17/16 A3021 RMK AO2

Laikas: 06:47 (11:47 UTC)

Prognozė

Ataskaita buvo paskelbta 27 minutes, ne 11:20 UTC
Prognozė galioja nuo 29 metu 12 UTC su 30 metu 12 UTC
Vėjas 2 kt nuo kintamojo kryptimis
Matomumas: 10 km
Mažai debesys ne aukštis 25000 ft
Nuo 29 metu 1500 UTC
Vėjas 8 kt iš Rytų/Šiaurės Rytų
Matomumas: 10 km
Giedras dangus
Nuo 30 metu 0100 UTC
Vėjas 2 kt nuo kintamojo kryptimis
Matomumas: 10 km
Giedras dangus

TAF: KSOA 291120Z 2912/3012 VRB02KT P6SM FEW250 FM291500 06008KT P6SM SKC FM300100 VRB02KT P6SM SKC

Orai ataskaitas ir orų prognozės (METAR, TAF).

turimą stotys yra geltonos ir raudonos taškus žemėlapyje.

Perkelti pele per norėdami pamatyti stoties vardą.

Tada spustelėkite, norėdami matyti oro stebėjimo ir prognozės.

Norėdami pakeisti žemėlapį: spustelėkite ant žalios mygtukų su juodo kryžiaus žemyn,; žalią mygtuką su brūkšneliu, jei norite nutolinti; arba žalių rodyklių gretimoms žemėlapius.


METAR-TAF: